sensor_id;sensor_type;location;lat;lon;timestamp;temperature;humidity
25568;DHT22;13455;51.480;7.594;2022-11-15T00:35:43;10.20;99.90
25568;DHT22;13455;51.480;7.594;2022-11-15T01:53:50;12.00;99.90
25568;DHT22;13455;51.480;7.594;2022-11-15T01:56:21;12.00;99.90
25568;DHT22;13455;51.480;7.594;2022-11-15T01:58:48;12.20;99.90
25568;DHT22;13455;51.480;7.594;2022-11-15T02:01:15;11.60;99.90
25568;DHT22;13455;51.480;7.594;2022-11-15T02:03:52;11.80;99.90
25568;DHT22;13455;51.480;7.594;2022-11-15T02:06:21;11.70;99.90
25568;DHT22;13455;51.480;7.594;2022-11-15T02:08:47;11.70;99.90
25568;DHT22;13455;51.480;7.594;2022-11-15T02:11:14;11.70;99.90
25568;DHT22;13455;51.480;7.594;2022-11-15T02:13:40;12.00;99.90
25568;DHT22;13455;51.480;7.594;2022-11-15T02:18:52;11.70;99.90
25568;DHT22;13455;51.480;7.594;2022-11-15T02:22:10;11.60;99.90
25568;DHT22;13455;51.480;7.594;2022-11-15T02:30:41;11.70;99.90
25568;DHT22;13455;51.480;7.594;2022-11-15T02:36:18;11.70;99.90
25568;DHT22;13455;51.480;7.594;2022-11-15T02:41:35;11.60;99.90
25568;DHT22;13455;51.480;7.594;2022-11-15T02:49:33;10.70;99.90
25568;DHT22;13455;51.480;7.594;2022-11-15T02:51:58;11.80;99.90
25568;DHT22;13455;51.480;7.594;2022-11-15T02:54:28;11.70;99.90
25568;DHT22;13455;51.480;7.594;2022-11-15T02:56:58;12.10;99.90
25568;DHT22;13455;51.480;7.594;2022-11-15T03:02:13;12.00;99.90
25568;DHT22;13455;51.480;7.594;2022-11-15T03:04:58;11.60;99.90
25568;DHT22;13455;51.480;7.594;2022-11-15T03:10:20;11.80;99.90
25568;DHT22;13455;51.480;7.594;2022-11-15T03:12:56;11.90;99.90
25568;DHT22;13455;51.480;7.594;2022-11-15T03:16:18;12.20;99.90
25568;DHT22;13455;51.480;7.594;2022-11-15T03:18:41;11.70;99.90
25568;DHT22;13455;51.480;7.594;2022-11-15T03:21:10;12.30;99.90
25568;DHT22;13455;51.480;7.594;2022-11-15T03:23:39;12.00;99.90
25568;DHT22;13455;51.480;7.594;2022-11-15T03:26:08;12.10;99.90
25568;DHT22;13455;51.480;7.594;2022-11-15T03:28:44;11.80;99.90
25568;DHT22;13455;51.480;7.594;2022-11-15T03:31:14;11.70;99.90
25568;DHT22;13455;51.480;7.594;2022-11-15T03:34:00;11.70;99.90
25568;DHT22;13455;51.480;7.594;2022-11-15T03:36:28;12.20;99.90
25568;DHT22;13455;51.480;7.594;2022-11-15T03:38:58;11.90;99.90
25568;DHT22;13455;51.480;7.594;2022-11-15T03:41:33;12.10;99.90
25568;DHT22;13455;51.480;7.594;2022-11-15T03:44:20;12.50;99.90
25568;DHT22;13455;51.480;7.594;2022-11-15T03:47:00;12.00;99.90
25568;DHT22;13455;51.480;7.594;2022-11-15T03:49:33;12.00;99.90
25568;DHT22;13455;51.480;7.594;2022-11-15T03:52:01;11.90;99.90
25568;DHT22;13455;51.480;7.594;2022-11-15T03:54:28;12.00;99.90
25568;DHT22;13455;51.480;7.594;2022-11-15T03:56:53;12.10;99.90
25568;DHT22;13455;51.480;7.594;2022-11-15T03:59:19;12.60;99.90
25568;DHT22;13455;51.480;7.594;2022-11-15T04:01:45;12.20;99.90
25568;DHT22;13455;51.480;7.594;2022-11-15T04:04:10;12.20;99.90
25568;DHT22;13455;51.480;7.594;2022-11-15T04:06:36;12.00;99.90
25568;DHT22;13455;51.480;7.594;2022-11-15T04:09:02;12.20;99.90
25568;DHT22;13455;51.480;7.594;2022-11-15T04:11:28;12.20;99.90
25568;DHT22;13455;51.480;7.594;2022-11-15T04:13:53;12.50;99.90
25568;DHT22;13455;51.480;7.594;2022-11-15T04:16:19;12.30;99.90
25568;DHT22;13455;51.480;7.594;2022-11-15T04:18:45;12.40;99.90
25568;DHT22;13455;51.480;7.594;2022-11-15T04:21:30;12.50;99.90
25568;DHT22;13455;51.480;7.594;2022-11-15T04:24:15;12.60;99.90
25568;DHT22;13455;51.480;7.594;2022-11-15T04:26:40;12.50;99.90
25568;DHT22;13455;51.480;7.594;2022-11-15T04:29:06;12.50;99.90
25568;DHT22;13455;51.480;7.594;2022-11-15T04:31:51;12.60;99.90
25568;DHT22;13455;51.480;7.594;2022-11-15T04:34:16;12.50;99.90
25568;DHT22;13455;51.480;7.594;2022-11-15T04:36:42;12.40;99.90
25568;DHT22;13455;51.480;7.594;2022-11-15T04:39:26;12.30;99.90
25568;DHT22;13455;51.480;7.594;2022-11-15T04:41:51;12.40;99.90
25568;DHT22;13455;51.480;7.594;2022-11-15T04:44:17;12.80;99.90
25568;DHT22;13455;51.480;7.594;2022-11-15T04:46:42;12.60;99.90
25568;DHT22;13455;51.480;7.594;2022-11-15T04:49:08;12.30;99.90
25568;DHT22;13455;51.480;7.594;2022-11-15T04:51:34;12.40;99.90
25568;DHT22;13455;51.480;7.594;2022-11-15T04:53:59;12.70;99.90
25568;DHT22;13455;51.480;7.594;2022-11-15T04:56:25;12.50;99.90
25568;DHT22;13455;51.480;7.594;2022-11-15T04:58:50;12.70;99.90
25568;DHT22;13455;51.480;7.594;2022-11-15T05:01:16;12.90;99.90
25568;DHT22;13455;51.480;7.594;2022-11-15T05:03:43;12.50;99.90
25568;DHT22;13455;51.480;7.594;2022-11-15T05:08:54;14.00;99.90
25568;DHT22;13455;51.480;7.594;2022-11-15T05:11:19;12.50;99.90
25568;DHT22;13455;51.480;7.594;2022-11-15T05:13:46;12.70;99.90
25568;DHT22;13455;51.480;7.594;2022-11-15T05:16:11;12.40;99.90
25568;DHT22;13455;51.480;7.594;2022-11-15T05:18:37;12.50;99.90
25568;DHT22;13455;51.480;7.594;2022-11-15T05:21:08;12.60;99.90
25568;DHT22;13455;51.480;7.594;2022-11-15T05:23:34;12.70;99.90
25568;DHT22;13455;51.480;7.594;2022-11-15T05:26:00;12.70;99.90
25568;DHT22;13455;51.480;7.594;2022-11-15T05:28:26;12.80;99.90
25568;DHT22;13455;51.480;7.594;2022-11-15T05:30:52;12.50;99.90
25568;DHT22;13455;51.480;7.594;2022-11-15T05:33:18;12.70;99.90
25568;DHT22;13455;51.480;7.594;2022-11-15T05:35:48;12.40;99.90
25568;DHT22;13455;51.480;7.594;2022-11-15T05:38:16;12.40;99.90
25568;DHT22;13455;51.480;7.594;2022-11-15T05:40:41;12.90;99.90
25568;DHT22;13455;51.480;7.594;2022-11-15T05:43:07;12.50;99.90
25568;DHT22;13455;51.480;7.594;2022-11-15T05:45:35;13.00;99.90
25568;DHT22;13455;51.480;7.594;2022-11-15T05:48:06;12.80;99.90
25568;DHT22;13455;51.480;7.594;2022-11-15T05:50:33;12.50;99.90
25568;DHT22;13455;51.480;7.594;2022-11-15T05:53:00;12.60;99.90
25568;DHT22;13455;51.480;7.594;2022-11-15T05:55:26;12.30;99.90
25568;DHT22;13455;51.480;7.594;2022-11-15T05:57:52;12.90;99.90
25568;DHT22;13455;51.480;7.594;2022-11-15T06:00:18;12.70;99.90
25568;DHT22;13455;51.480;7.594;2022-11-15T06:02:44;12.40;99.90
25568;DHT22;13455;51.480;7.594;2022-11-15T06:05:09;12.50;99.90
25568;DHT22;13455;51.480;7.594;2022-11-15T06:07:35;12.50;99.90
25568;DHT22;13455;51.480;7.594;2022-11-15T06:10:00;12.60;99.90
25568;DHT22;13455;51.480;7.594;2022-11-15T06:12:26;13.00;99.90
25568;DHT22;13455;51.480;7.594;2022-11-15T06:14:52;12.90;99.90
25568;DHT22;13455;51.480;7.594;2022-11-15T06:17:17;12.90;99.90
25568;DHT22;13455;51.480;7.594;2022-11-15T06:19:43;12.50;99.90
25568;DHT22;13455;51.480;7.594;2022-11-15T06:22:08;12.80;99.90
25568;DHT22;13455;51.480;7.594;2022-11-15T06:24:34;12.50;99.90
25568;DHT22;13455;51.480;7.594;2022-11-15T06:27:00;12.60;99.90
25568;DHT22;13455;51.480;7.594;2022-11-15T06:29:26;12.70;99.90
25568;DHT22;13455;51.480;7.594;2022-11-15T06:31:51;12.50;99.90
25568;DHT22;13455;51.480;7.594;2022-11-15T06:34:18;12.80;99.90
25568;DHT22;13455;51.480;7.594;2022-11-15T06:36:43;12.40;99.90
25568;DHT22;13455;51.480;7.594;2022-11-15T06:39:09;12.40;99.90
25568;DHT22;13455;51.480;7.594;2022-11-15T06:41:35;12.30;99.90
25568;DHT22;13455;51.480;7.594;2022-11-15T06:44:01;12.60;99.90
25568;DHT22;13455;51.480;7.594;2022-11-15T06:46:27;13.00;99.90
25568;DHT22;13455;51.480;7.594;2022-11-15T06:48:53;12.80;99.90
25568;DHT22;13455;51.480;7.594;2022-11-15T06:51:19;12.70;99.90
25568;DHT22;13455;51.480;7.594;2022-11-15T06:53:45;12.70;99.90
25568;DHT22;13455;51.480;7.594;2022-11-15T06:56:10;12.60;99.90
25568;DHT22;13455;51.480;7.594;2022-11-15T06:58:36;12.60;99.90
25568;DHT22;13455;51.480;7.594;2022-11-15T07:01:07;12.70;99.90
25568;DHT22;13455;51.480;7.594;2022-11-15T07:03:37;12.90;99.90
25568;DHT22;13455;51.480;7.594;2022-11-15T07:06:04;12.50;99.90
25568;DHT22;13455;51.480;7.594;2022-11-15T07:08:29;12.40;99.90
25568;DHT22;13455;51.480;7.594;2022-11-15T07:13:25;12.50;99.90
25568;DHT22;13455;51.480;7.594;2022-11-15T07:15:51;12.50;99.90
25568;DHT22;13455;51.480;7.594;2022-11-15T07:18:17;12.60;99.90
25568;DHT22;13455;51.480;7.594;2022-11-15T07:20:42;11.90;99.90
25568;DHT22;13455;51.480;7.594;2022-11-15T07:23:08;12.40;99.90
25568;DHT22;13455;51.480;7.594;2022-11-15T07:25:34;12.60;99.90
25568;DHT22;13455;51.480;7.594;2022-11-15T07:28:00;12.60;99.90
25568;DHT22;13455;51.480;7.594;2022-11-15T07:40:29;12.80;99.90
25568;DHT22;13455;51.480;7.594;2022-11-15T07:43:06;12.60;99.90
25568;DHT22;13455;51.480;7.594;2022-11-15T07:45:33;12.60;99.90
25568;DHT22;13455;51.480;7.594;2022-11-15T07:48:00;12.50;99.90
25568;DHT22;13455;51.480;7.594;2022-11-15T07:50:26;12.60;99.90
25568;DHT22;13455;51.480;7.594;2022-11-15T07:52:59;12.60;99.90
25568;DHT22;13455;51.480;7.594;2022-11-15T07:55:26;12.50;99.90
25568;DHT22;13455;51.480;7.594;2022-11-15T07:57:53;12.50;99.90
25568;DHT22;13455;51.480;7.594;2022-11-15T08:00:24;12.50;99.90
25568;DHT22;13455;51.480;7.594;2022-11-15T08:02:50;12.50;99.90
25568;DHT22;13455;51.480;7.594;2022-11-15T08:05:16;12.60;99.90
25568;DHT22;13455;51.480;7.594;2022-11-15T08:07:41;12.50;99.90
25568;DHT22;13455;51.480;7.594;2022-11-15T08:10:07;12.40;99.90
25568;DHT22;13455;51.480;7.594;2022-11-15T08:12:33;12.40;99.90
25568;DHT22;13455;51.480;7.594;2022-11-15T08:14:59;12.40;99.90
25568;DHT22;13455;51.480;7.594;2022-11-15T08:17:25;12.40;99.90
25568;DHT22;13455;51.480;7.594;2022-11-15T08:19:51;12.50;99.90
25568;DHT22;13455;51.480;7.594;2022-11-15T08:22:17;12.30;99.90
25568;DHT22;13455;51.480;7.594;2022-11-15T08:24:43;12.30;99.90
25568;DHT22;13455;51.480;7.594;2022-11-15T08:27:09;12.40;99.90
25568;DHT22;13455;51.480;7.594;2022-11-15T08:29:41;12.40;99.90
25568;DHT22;13455;51.480;7.594;2022-11-15T08:32:07;12.70;99.90
25568;DHT22;13455;51.480;7.594;2022-11-15T08:34:33;12.80;99.90
25568;DHT22;13455;51.480;7.594;2022-11-15T08:39:24;12.50;99.90
25568;DHT22;13455;51.480;7.594;2022-11-15T08:54:00;12.70;99.90
25568;DHT22;13455;51.480;7.594;2022-11-15T08:56:25;12.70;99.90
25568;DHT22;13455;51.480;7.594;2022-11-15T08:58:51;12.70;99.90
25568;DHT22;13455;51.480;7.594;2022-11-15T09:03:44;12.80;99.90
25568;DHT22;13455;51.480;7.594;2022-11-15T09:06:10;12.80;99.90
25568;DHT22;13455;51.480;7.594;2022-11-15T09:08:36;12.80;99.90
25568;DHT22;13455;51.480;7.594;2022-11-15T09:11:06;12.80;99.90
25568;DHT22;13455;51.480;7.594;2022-11-15T09:13:33;12.90;99.90
25568;DHT22;13455;51.480;7.594;2022-11-15T09:16:00;12.90;99.90
25568;DHT22;13455;51.480;7.594;2022-11-15T09:18:26;13.00;99.90
25568;DHT22;13455;51.480;7.594;2022-11-15T09:20:58;12.90;99.90
25568;DHT22;13455;51.480;7.594;2022-11-15T09:23:25;12.90;99.90
25568;DHT22;13455;51.480;7.594;2022-11-15T09:25:51;13.00;99.90
25568;DHT22;13455;51.480;7.594;2022-11-15T09:28:17;13.00;99.90
25568;DHT22;13455;51.480;7.594;2022-11-15T09:30:43;13.00;99.90
25568;DHT22;13455;51.480;7.594;2022-11-15T09:33:11;13.00;99.90
25568;DHT22;13455;51.480;7.594;2022-11-15T09:35:37;13.10;99.90
25568;DHT22;13455;51.480;7.594;2022-11-15T09:38:03;13.10;99.90
25568;DHT22;13455;51.480;7.594;2022-11-15T09:40:31;13.10;99.90
25568;DHT22;13455;51.480;7.594;2022-11-15T09:48:51;13.20;99.90
25568;DHT22;13455;51.480;7.594;2022-11-15T09:51:30;13.30;99.90
25568;DHT22;13455;51.480;7.594;2022-11-15T09:56:37;13.40;99.90
25568;DHT22;13455;51.480;7.594;2022-11-15T10:02:12;13.60;99.90
25568;DHT22;13455;51.480;7.594;2022-11-15T10:04:40;13.50;99.90
25568;DHT22;13455;51.480;7.594;2022-11-15T10:12:42;13.50;99.90
25568;DHT22;13455;51.480;7.594;2022-11-15T10:15:14;13.60;99.90
25568;DHT22;13455;51.480;7.594;2022-11-15T10:20:30;13.70;99.90
25568;DHT22;13455;51.480;7.594;2022-11-15T10:23:04;14.10;99.90
25568;DHT22;13455;51.480;7.594;2022-11-15T10:25:34;13.90;99.90
25568;DHT22;13455;51.480;7.594;2022-11-15T10:28:22;14.00;99.90
25568;DHT22;13455;51.480;7.594;2022-11-15T10:30:51;14.00;99.90
25568;DHT22;13455;51.480;7.594;2022-11-15T10:33:36;14.10;99.90
25568;DHT22;13455;51.480;7.594;2022-11-15T10:44:00;14.50;99.90
25568;DHT22;13455;51.480;7.594;2022-11-15T10:46:26;14.50;99.90
25568;DHT22;13455;51.480;7.594;2022-11-15T10:48:52;14.60;99.90
25568;DHT22;13455;51.480;7.594;2022-11-15T10:51:24;14.80;99.90
25568;DHT22;13455;51.480;7.594;2022-11-15T10:53:54;14.70;99.90
25568;DHT22;13455;51.480;7.594;2022-11-15T10:56:23;14.80;99.90
25568;DHT22;13455;51.480;7.594;2022-11-15T10:58:54;14.90;99.90
25568;DHT22;13455;51.480;7.594;2022-11-15T11:01:25;15.00;99.90
25568;DHT22;13455;51.480;7.594;2022-11-15T11:22:11;15.80;99.90
25568;DHT22;13455;51.480;7.594;2022-11-15T11:55:53;18.60;99.90
25568;DHT22;13455;51.480;7.594;2022-11-15T11:58:38;19.10;99.90
25568;DHT22;13455;51.480;7.594;2022-11-15T12:01:30;19.20;99.90
25568;DHT22;13455;51.480;7.594;2022-11-15T12:17:09;20.40;98.20
25568;DHT22;13455;51.480;7.594;2022-11-15T12:29:49;21.60;89.70
25568;DHT22;13455;51.480;7.594;2022-11-15T12:35:35;22.20;95.70
25568;DHT22;13455;51.480;7.594;2022-11-15T12:38:03;22.20;96.00
25568;DHT22;13455;51.480;7.594;2022-11-15T12:43:05;22.80;84.70
25568;DHT22;13455;51.480;7.594;2022-11-15T12:45:38;23.00;81.80
25568;DHT22;13455;51.480;7.594;2022-11-15T12:56:18;22.30;71.40
25568;DHT22;13455;51.480;7.594;2022-11-15T13:12:02;19.80;78.90
25568;DHT22;13455;51.480;7.594;2022-11-15T13:14:45;19.30;81.10
25568;DHT22;13455;51.480;7.594;2022-11-15T13:17:36;19.20;87.30
25568;DHT22;13455;51.480;7.594;2022-11-15T13:30:56;17.90;90.30
25568;DHT22;13455;51.480;7.594;2022-11-15T13:33:33;17.80;90.50
25568;DHT22;13455;51.480;7.594;2022-11-15T13:41:09;17.60;99.90
25568;DHT22;13455;51.480;7.594;2022-11-15T13:43:36;17.40;92.50
25568;DHT22;13455;51.480;7.594;2022-11-15T14:11:37;16.10;97.60
25568;DHT22;13455;51.480;7.594;2022-11-15T14:19:03;15.80;99.30
25568;DHT22;13455;51.480;7.594;2022-11-15T14:21:29;15.80;99.60
25568;DHT22;13455;51.480;7.594;2022-11-15T14:29:26;15.60;99.90
25568;DHT22;13455;51.480;7.594;2022-11-15T14:31:53;15.50;99.90
25568;DHT22;13455;51.480;7.594;2022-11-15T14:58:43;15.20;99.90
25568;DHT22;13455;51.480;7.594;2022-11-15T15:01:16;15.10;99.90
25568;DHT22;13455;51.480;7.594;2022-11-15T15:03:42;15.10;99.90
25568;DHT22;13455;51.480;7.594;2022-11-15T15:06:09;15.00;99.90
25568;DHT22;13455;51.480;7.594;2022-11-15T15:18:21;15.60;99.90
25568;DHT22;13455;51.480;7.594;2022-11-15T15:20:57;14.80;99.90
25568;DHT22;13455;51.480;7.594;2022-11-15T15:25:56;14.80;99.90
25568;DHT22;13455;51.480;7.594;2022-11-15T15:28:22;14.70;99.90
25568;DHT22;13455;51.480;7.594;2022-11-15T15:30:48;14.80;99.90
25568;DHT22;13455;51.480;7.594;2022-11-15T15:33:15;14.60;99.90
25568;DHT22;13455;51.480;7.594;2022-11-15T15:35:41;14.50;99.90
25568;DHT22;13455;51.480;7.594;2022-11-15T15:38:12;14.50;99.90
25568;DHT22;13455;51.480;7.594;2022-11-15T15:40:38;14.40;99.90
25568;DHT22;13455;51.480;7.594;2022-11-15T15:43:03;14.40;99.90
25568;DHT22;13455;51.480;7.594;2022-11-15T15:45:30;14.50;99.90
25568;DHT22;13455;51.480;7.594;2022-11-15T18:18:00;13.50;99.90
25568;DHT22;13455;51.480;7.594;2022-11-15T18:20:26;13.50;99.90
25568;DHT22;13455;51.480;7.594;2022-11-15T18:22:52;13.50;99.90
25568;DHT22;13455;51.480;7.594;2022-11-15T18:25:18;13.50;99.90
25568;DHT22;13455;51.480;7.594;2022-11-15T18:27:44;13.50;99.90
25568;DHT22;13455;51.480;7.594;2022-11-15T18:30:10;13.50;99.90
25568;DHT22;13455;51.480;7.594;2022-11-15T18:32:36;13.50;99.90
25568;DHT22;13455;51.480;7.594;2022-11-15T18:35:01;13.50;99.90
25568;DHT22;13455;51.480;7.594;2022-11-15T18:37:27;13.50;99.90
25568;DHT22;13455;51.480;7.594;2022-11-15T18:39:52;13.50;99.90
25568;DHT22;13455;51.480;7.594;2022-11-15T20:00:58;13.60;99.90
25568;DHT22;13455;51.480;7.594;2022-11-15T22:35:40;13.20;99.90
25568;DHT22;13455;51.480;7.594;2022-11-15T22:38:06;13.40;99.90
25568;DHT22;13455;51.480;7.594;2022-11-15T22:40:32;13.30;99.90
25568;DHT22;13455;51.480;7.594;2022-11-15T22:42:58;13.20;99.90
25568;DHT22;13455;51.480;7.594;2022-11-15T22:45:23;13.20;99.90
25568;DHT22;13455;51.480;7.594;2022-11-15T22:47:49;13.20;99.90
25568;DHT22;13455;51.480;7.594;2022-11-15T22:50:15;13.20;99.90
25568;DHT22;13455;51.480;7.594;2022-11-15T22:52:41;13.20;99.90
25568;DHT22;13455;51.480;7.594;2022-11-15T22:55:07;13.20;99.90
25568;DHT22;13455;51.480;7.594;2022-11-15T22:57:32;13.20;99.90
25568;DHT22;13455;51.480;7.594;2022-11-15T22:59:58;13.20;99.90
25568;DHT22;13455;51.480;7.594;2022-11-15T23:02:27;13.40;99.90
25568;DHT22;13455;51.480;7.594;2022-11-15T23:04:52;13.40;99.90
25568;DHT22;13455;51.480;7.594;2022-11-15T23:07:18;13.20;99.90
25568;DHT22;13455;51.480;7.594;2022-11-15T23:09:44;13.40;99.90
25568;DHT22;13455;51.480;7.594;2022-11-15T23:12:10;13.10;99.90
25568;DHT22;13455;51.480;7.594;2022-11-15T23:14:54;13.20;99.90
25568;DHT22;13455;51.480;7.594;2022-11-15T23:17:20;13.10;99.90
25568;DHT22;13455;51.480;7.594;2022-11-15T23:19:46;13.10;99.90
25568;DHT22;13455;51.480;7.594;2022-11-15T23:22:11;13.10;99.90
25568;DHT22;13455;51.480;7.594;2022-11-15T23:24:55;13.10;99.90
25568;DHT22;13455;51.480;7.594;2022-11-15T23:27:24;13.00;99.90
25568;DHT22;13455;51.480;7.594;2022-11-15T23:32:34;13.00;99.90
25568;DHT22;13455;51.480;7.594;2022-11-15T23:35:18;13.00;99.90
25568;DHT22;13455;51.480;7.594;2022-11-15T23:37:44;12.90;99.90
25568;DHT22;13455;51.480;7.594;2022-11-15T23:40:11;12.90;99.90
25568;DHT22;13455;51.480;7.594;2022-11-15T23:42:37;12.90;99.90
25568;DHT22;13455;51.480;7.594;2022-11-15T23:45:03;12.90;99.90
25568;DHT22;13455;51.480;7.594;2022-11-15T23:47:28;12.90;99.90
25568;DHT22;13455;51.480;7.594;2022-11-15T23:49:54;12.90;99.90
25568;DHT22;13455;51.480;7.594;2022-11-15T23:52:20;13.00;99.90
25568;DHT22;13455;51.480;7.594;2022-11-15T23:54:47;12.80;99.90
25568;DHT22;13455;51.480;7.594;2022-11-15T23:57:13;12.80;99.90
25568;DHT22;13455;51.480;7.594;2022-11-15T23:59:40;12.80;99.90
